sensor_id;sensor_type;location;lat;lon;timestamp;P1;durP1;ratioP1;P2;durP2;ratioP2
14292;SDS011;62290;59.420;17.842;2023-02-01T00:00:16;6.00;;;2.72;;
14292;SDS011;62290;59.420;17.842;2023-02-01T00:02:47;5.60;;;2.60;;
14292;SDS011;62290;59.420;17.842;2023-02-01T00:05:15;4.75;;;2.70;;
14292;SDS011;62290;59.420;17.842;2023-02-01T00:07:43;4.60;;;2.50;;
14292;SDS011;62290;59.420;17.842;2023-02-01T00:10:14;5.88;;;3.22;;
14292;SDS011;62290;59.420;17.842;2023-02-01T00:12:43;4.70;;;2.50;;
14292;SDS011;62290;59.420;17.842;2023-02-01T00:15:11;5.88;;;2.60;;
14292;SDS011;62290;59.420;17.842;2023-02-01T00:17:39;6.85;;;3.00;;
14292;SDS011;62290;59.420;17.842;2023-02-01T00:20:09;4.88;;;2.63;;
14292;SDS011;62290;59.420;17.842;2023-02-01T00:22:38;4.38;;;2.47;;
14292;SDS011;62290;59.420;17.842;2023-02-01T00:25:06;4.25;;;2.40;;
14292;SDS011;62290;59.420;17.842;2023-02-01T00:27:35;5.38;;;2.70;;
14292;SDS011;62290;59.420;17.842;2023-02-01T00:30:03;6.60;;;2.50;;
14292;SDS011;62290;59.420;17.842;2023-02-01T00:32:32;3.42;;;2.33;;
14292;SDS011;62290;59.420;17.842;2023-02-01T00:35:00;4.18;;;2.40;;
14292;SDS011;62290;59.420;17.842;2023-02-01T00:37:29;4.85;;;2.60;;
14292;SDS011;62290;59.420;17.842;2023-02-01T00:39:57;4.43;;;2.42;;
14292;SDS011;62290;59.420;17.842;2023-02-01T00:42:25;4.32;;;2.50;;
14292;SDS011;62290;59.420;17.842;2023-02-01T00:44:53;6.90;;;2.47;;
14292;SDS011;62290;59.420;17.842;2023-02-01T00:47:21;6.90;;;2.85;;
14292;SDS011;62290;59.420;17.842;2023-02-01T00:49:49;5.80;;;3.17;;
14292;SDS011;62290;59.420;17.842;2023-02-01T00:52:17;5.55;;;2.58;;
14292;SDS011;62290;59.420;17.842;2023-02-01T00:54:46;7.32;;;3.05;;
14292;SDS011;62290;59.420;17.842;2023-02-01T00:57:14;4.20;;;2.67;;
14292;SDS011;62290;59.420;17.842;2023-02-01T00:59:42;4.13;;;2.47;;
14292;SDS011;62290;59.420;17.842;2023-02-01T01:02:10;4.03;;;2.60;;
14292;SDS011;62290;59.420;17.842;2023-02-01T01:04:40;4.38;;;2.80;;
14292;SDS011;62290;59.420;17.842;2023-02-01T01:07:08;5.25;;;2.95;;
14292;SDS011;62290;59.420;17.842;2023-02-01T01:09:36;3.97;;;2.25;;
14292;SDS011;62290;59.420;17.842;2023-02-01T01:12:05;5.97;;;3.05;;
14292;SDS011;62290;59.420;17.842;2023-02-01T01:14:33;4.97;;;2.88;;
14292;SDS011;62290;59.420;17.842;2023-02-01T01:17:01;6.95;;;2.75;;
14292;SDS011;62290;59.420;17.842;2023-02-01T01:19:29;4.90;;;2.35;;
14292;SDS011;62290;59.420;17.842;2023-02-01T01:21:57;3.67;;;2.45;;
14292;SDS011;62290;59.420;17.842;2023-02-01T01:24:25;3.85;;;2.38;;
14292;SDS011;62290;59.420;17.842;2023-02-01T01:26:53;4.47;;;2.58;;
14292;SDS011;62290;59.420;17.842;2023-02-01T01:29:23;4.68;;;2.03;;
14292;SDS011;62290;59.420;17.842;2023-02-01T01:31:51;4.20;;;1.90;;
14292;SDS011;62290;59.420;17.842;2023-02-01T01:34:19;5.22;;;2.40;;
14292;SDS011;62290;59.420;17.842;2023-02-01T01:36:47;4.07;;;2.17;;
14292;SDS011;62290;59.420;17.842;2023-02-01T01:39:14;3.03;;;1.90;;
14292;SDS011;62290;59.420;17.842;2023-02-01T01:41:42;2.90;;;1.90;;
14292;SDS011;62290;59.420;17.842;2023-02-01T01:47:30;3.72;;;2.00;;
14292;SDS011;62290;59.420;17.842;2023-02-01T01:50:01;5.32;;;2.20;;
14292;SDS011;62290;59.420;17.842;2023-02-01T01:52:31;3.75;;;1.90;;
14292;SDS011;62290;59.420;17.842;2023-02-01T01:55:00;2.35;;;1.63;;
14292;SDS011;62290;59.420;17.842;2023-02-01T01:57:29;3.47;;;1.98;;
14292;SDS011;62290;59.420;17.842;2023-02-01T02:00:05;3.88;;;2.03;;
14292;SDS011;62290;59.420;17.842;2023-02-01T02:02:38;2.70;;;1.52;;
14292;SDS011;62290;59.420;17.842;2023-02-01T02:05:09;2.22;;;1.63;;
14292;SDS011;62290;59.420;17.842;2023-02-01T02:07:39;3.00;;;1.60;;
14292;SDS011;62290;59.420;17.842;2023-02-01T02:10:10;3.13;;;1.65;;
14292;SDS011;62290;59.420;17.842;2023-02-01T02:12:42;3.22;;;2.10;;
14292;SDS011;62290;59.420;17.842;2023-02-01T02:15:14;2.33;;;1.65;;
14292;SDS011;62290;59.420;17.842;2023-02-01T02:17:45;2.85;;;1.65;;
14292;SDS011;62290;59.420;17.842;2023-02-01T02:20:24;4.72;;;1.73;;
14292;SDS011;62290;59.420;17.842;2023-02-01T02:26:14;2.72;;;1.50;;
14292;SDS011;62290;59.420;17.842;2023-02-01T02:32:00;2.47;;;1.40;;
14292;SDS011;62290;59.420;17.842;2023-02-01T02:34:51;1.58;;;1.40;;
14292;SDS011;62290;59.420;17.842;2023-02-01T02:37:26;1.90;;;1.45;;
14292;SDS011;62290;59.420;17.842;2023-02-01T02:40:05;2.72;;;2.30;;
14292;SDS011;62290;59.420;17.842;2023-02-01T02:42:43;2.38;;;1.38;;
14292;SDS011;62290;59.420;17.842;2023-02-01T02:45:38;2.65;;;1.52;;
14292;SDS011;62290;59.420;17.842;2023-02-01T02:48:29;1.98;;;1.33;;
14292;SDS011;62290;59.420;17.842;2023-02-01T02:51:07;2.05;;;1.50;;
14292;SDS011;62290;59.420;17.842;2023-02-01T02:53:59;2.55;;;1.50;;
14292;SDS011;62290;59.420;17.842;2023-02-01T02:56:47;2.15;;;1.40;;
14292;SDS011;62290;59.420;17.842;2023-02-01T02:59:34;3.33;;;1.40;;
14292;SDS011;62290;59.420;17.842;2023-02-01T03:02:22;1.92;;;1.30;;
14292;SDS011;62290;59.420;17.842;2023-02-01T03:05:11;2.17;;;1.52;;
14292;SDS011;62290;59.420;17.842;2023-02-01T03:10:34;5.35;;;1.30;;
14292;SDS011;62290;59.420;17.842;2023-02-01T03:13:09;1.40;;;1.23;;
14292;SDS011;62290;59.420;17.842;2023-02-01T03:15:42;2.15;;;1.20;;
14292;SDS011;62290;59.420;17.842;2023-02-01T03:18:16;3.78;;;1.88;;
14292;SDS011;62290;59.420;17.842;2023-02-01T03:20:50;2.85;;;1.40;;
14292;SDS011;62290;59.420;17.842;2023-02-01T03:23:23;3.45;;;1.33;;
14292;SDS011;62290;59.420;17.842;2023-02-01T03:25:55;2.00;;;1.50;;
14292;SDS011;62290;59.420;17.842;2023-02-01T03:28:27;1.98;;;1.40;;
14292;SDS011;62290;59.420;17.842;2023-02-01T03:30:58;2.63;;;1.83;;
14292;SDS011;62290;59.420;17.842;2023-02-01T03:33:28;1.30;;;1.05;;
14292;SDS011;62290;59.420;17.842;2023-02-01T03:36:05;2.65;;;1.50;;
14292;SDS011;62290;59.420;17.842;2023-02-01T03:38:42;2.58;;;1.30;;
14292;SDS011;62290;59.420;17.842;2023-02-01T03:41:20;2.60;;;1.55;;
14292;SDS011;62290;59.420;17.842;2023-02-01T03:43:55;3.70;;;1.58;;
14292;SDS011;62290;59.420;17.842;2023-02-01T03:46:29;2.10;;;1.40;;
14292;SDS011;62290;59.420;17.842;2023-02-01T03:49:02;1.40;;;1.08;;
14292;SDS011;62290;59.420;17.842;2023-02-01T03:51:36;2.95;;;1.63;;
14292;SDS011;62290;59.420;17.842;2023-02-01T03:54:11;2.58;;;1.52;;
14292;SDS011;62290;59.420;17.842;2023-02-01T03:56:42;3.05;;;1.67;;
14292;SDS011;62290;59.420;17.842;2023-02-01T03:59:13;1.20;;;1.02;;
14292;SDS011;62290;59.420;17.842;2023-02-01T04:01:42;2.80;;;1.20;;
14292;SDS011;62290;59.420;17.842;2023-02-01T04:04:10;1.88;;;1.25;;
14292;SDS011;62290;59.420;17.842;2023-02-01T04:06:49;1.52;;;1.38;;
14292;SDS011;62290;59.420;17.842;2023-02-01T04:09:20;2.20;;;1.30;;
14292;SDS011;62290;59.420;17.842;2023-02-01T04:11:48;1.35;;;1.20;;
14292;SDS011;62290;59.420;17.842;2023-02-01T04:14:16;1.90;;;1.35;;
14292;SDS011;62290;59.420;17.842;2023-02-01T04:16:44;1.45;;;1.17;;
14292;SDS011;62290;59.420;17.842;2023-02-01T04:19:12;2.20;;;1.25;;
14292;SDS011;62290;59.420;17.842;2023-02-01T04:21:40;1.55;;;1.15;;
14292;SDS011;62290;59.420;17.842;2023-02-01T04:24:08;1.38;;;1.02;;
14292;SDS011;62290;59.420;17.842;2023-02-01T04:26:38;2.42;;;1.50;;
14292;SDS011;62290;59.420;17.842;2023-02-01T04:29:08;2.42;;;1.60;;
14292;SDS011;62290;59.420;17.842;2023-02-01T04:31:36;1.67;;;1.23;;
14292;SDS011;62290;59.420;17.842;2023-02-01T04:34:04;2.85;;;1.20;;
14292;SDS011;62290;59.420;17.842;2023-02-01T04:36:32;2.25;;;1.33;;
14292;SDS011;62290;59.420;17.842;2023-02-01T04:39:00;1.88;;;1.13;;
14292;SDS011;62290;59.420;17.842;2023-02-01T04:41:28;1.70;;;1.30;;
14292;SDS011;62290;59.420;17.842;2023-02-01T04:43:58;1.55;;;1.30;;
14292;SDS011;62290;59.420;17.842;2023-02-01T04:46:26;1.45;;;1.20;;
14292;SDS011;62290;59.420;17.842;2023-02-01T04:48:54;2.33;;;1.40;;
14292;SDS011;62290;59.420;17.842;2023-02-01T04:51:22;2.35;;;1.35;;
14292;SDS011;62290;59.420;17.842;2023-02-01T04:53:50;1.40;;;1.00;;
14292;SDS011;62290;59.420;17.842;2023-02-01T04:56:18;1.92;;;1.35;;
14292;SDS011;62290;59.420;17.842;2023-02-01T04:58:46;1.10;;;1.00;;
14292;SDS011;62290;59.420;17.842;2023-02-01T05:01:15;1.48;;;1.25;;
14292;SDS011;62290;59.420;17.842;2023-02-01T05:03:43;2.88;;;1.45;;
14292;SDS011;62290;59.420;17.842;2023-02-01T05:06:11;1.70;;;1.25;;
14292;SDS011;62290;59.420;17.842;2023-02-01T05:08:39;1.38;;;1.27;;
14292;SDS011;62290;59.420;17.842;2023-02-01T05:11:07;1.55;;;1.27;;
14292;SDS011;62290;59.420;17.842;2023-02-01T05:13:56;1.58;;;1.10;;
14292;SDS011;62290;59.420;17.842;2023-02-01T05:16:24;2.83;;;1.80;;
14292;SDS011;62290;59.420;17.842;2023-02-01T05:18:53;2.17;;;1.30;;
14292;SDS011;62290;59.420;17.842;2023-02-01T05:21:21;1.95;;;1.40;;
14292;SDS011;62290;59.420;17.842;2023-02-01T05:23:49;2.70;;;1.50;;
14292;SDS011;62290;59.420;17.842;2023-02-01T05:26:34;2.75;;;1.20;;
14292;SDS011;62290;59.420;17.842;2023-02-01T05:29:03;3.85;;;1.40;;
14292;SDS011;62290;59.420;17.842;2023-02-01T05:31:33;1.77;;;1.10;;
14292;SDS011;62290;59.420;17.842;2023-02-01T05:34:01;1.88;;;1.38;;
14292;SDS011;62290;59.420;17.842;2023-02-01T05:36:29;1.25;;;1.15;;
14292;SDS011;62290;59.420;17.842;2023-02-01T05:38:57;2.05;;;1.30;;
14292;SDS011;62290;59.420;17.842;2023-02-01T05:41:25;4.43;;;1.10;;
14292;SDS011;62290;59.420;17.842;2023-02-01T05:43:53;2.33;;;1.50;;
14292;SDS011;62290;59.420;17.842;2023-02-01T05:46:21;1.42;;;1.10;;
14292;SDS011;62290;59.420;17.842;2023-02-01T05:48:50;2.22;;;1.48;;
14292;SDS011;62290;59.420;17.842;2023-02-01T05:51:18;1.98;;;1.40;;
14292;SDS011;62290;59.420;17.842;2023-02-01T05:53:46;1.45;;;1.27;;
14292;SDS011;62290;59.420;17.842;2023-02-01T05:56:14;1.50;;;1.20;;
14292;SDS011;62290;59.420;17.842;2023-02-01T05:58:43;1.85;;;1.33;;
14292;SDS011;62290;59.420;17.842;2023-02-01T06:01:11;2.40;;;1.55;;
14292;SDS011;62290;59.420;17.842;2023-02-01T06:03:39;1.70;;;1.30;;
14292;SDS011;62290;59.420;17.842;2023-02-01T06:06:08;2.30;;;1.40;;
14292;SDS011;62290;59.420;17.842;2023-02-01T06:08:36;1.75;;;1.40;;
14292;SDS011;62290;59.420;17.842;2023-02-01T06:11:06;1.63;;;1.20;;
14292;SDS011;62290;59.420;17.842;2023-02-01T06:13:36;2.00;;;1.30;;
14292;SDS011;62290;59.420;17.842;2023-02-01T06:16:05;2.97;;;1.40;;
14292;SDS011;62290;59.420;17.842;2023-02-01T06:18:34;2.33;;;1.50;;
14292;SDS011;62290;59.420;17.842;2023-02-01T06:21:02;3.30;;;1.50;;
14292;SDS011;62290;59.420;17.842;2023-02-01T06:23:32;2.20;;;1.30;;
14292;SDS011;62290;59.420;17.842;2023-02-01T06:26:01;2.35;;;1.35;;
14292;SDS011;62290;59.420;17.842;2023-02-01T06:28:31;1.95;;;1.50;;
14292;SDS011;62290;59.420;17.842;2023-02-01T06:31:02;2.67;;;1.17;;
14292;SDS011;62290;59.420;17.842;2023-02-01T06:33:33;2.78;;;1.25;;
14292;SDS011;62290;59.420;17.842;2023-02-01T06:36:02;2.00;;;1.27;;
14292;SDS011;62290;59.420;17.842;2023-02-01T06:38:34;1.77;;;1.42;;
14292;SDS011;62290;59.420;17.842;2023-02-01T06:41:03;2.00;;;1.48;;
14292;SDS011;62290;59.420;17.842;2023-02-01T06:43:31;1.73;;;1.45;;
14292;SDS011;62290;59.420;17.842;2023-02-01T06:46:00;1.50;;;1.33;;
14292;SDS011;62290;59.420;17.842;2023-02-01T06:48:30;1.23;;;1.10;;
14292;SDS011;62290;59.420;17.842;2023-02-01T06:50:58;2.47;;;1.25;;
14292;SDS011;62290;59.420;17.842;2023-02-01T06:53:26;1.38;;;1.20;;
14292;SDS011;62290;59.420;17.842;2023-02-01T06:55:56;2.33;;;1.50;;
14292;SDS011;62290;59.420;17.842;2023-02-01T06:58:27;1.30;;;1.15;;
14292;SDS011;62290;59.420;17.842;2023-02-01T07:00:56;1.58;;;1.30;;
14292;SDS011;62290;59.420;17.842;2023-02-01T07:03:25;2.88;;;1.13;;
14292;SDS011;62290;59.420;17.842;2023-02-01T07:05:55;1.30;;;1.20;;
14292;SDS011;62290;59.420;17.842;2023-02-01T07:08:24;1.45;;;1.30;;
14292;SDS011;62290;59.420;17.842;2023-02-01T07:10:54;1.58;;;1.00;;
14292;SDS011;62290;59.420;17.842;2023-02-01T07:13:23;1.98;;;1.30;;
14292;SDS011;62290;59.420;17.842;2023-02-01T07:15:51;1.25;;;1.00;;
14292;SDS011;62290;59.420;17.842;2023-02-01T07:18:19;1.45;;;0.88;;
14292;SDS011;62290;59.420;17.842;2023-02-01T07:20:50;1.10;;;0.95;;
14292;SDS011;62290;59.420;17.842;2023-02-01T07:23:18;2.00;;;1.17;;
14292;SDS011;62290;59.420;17.842;2023-02-01T07:25:47;1.83;;;1.15;;
14292;SDS011;62290;59.420;17.842;2023-02-01T07:28:16;1.10;;;0.90;;
14292;SDS011;62290;59.420;17.842;2023-02-01T07:30:44;1.10;;;1.00;;
14292;SDS011;62290;59.420;17.842;2023-02-01T07:33:18;1.10;;;0.98;;
14292;SDS011;62290;59.420;17.842;2023-02-01T07:35:47;1.13;;;0.80;;
14292;SDS011;62290;59.420;17.842;2023-02-01T07:38:16;1.75;;;1.08;;
14292;SDS011;62290;59.420;17.842;2023-02-01T07:40:45;1.10;;;0.80;;
14292;SDS011;62290;59.420;17.842;2023-02-01T07:43:13;2.83;;;1.15;;
14292;SDS011;62290;59.420;17.842;2023-02-01T07:45:43;1.10;;;1.00;;
14292;SDS011;62290;59.420;17.842;2023-02-01T07:48:18;2.30;;;1.02;;
14292;SDS011;62290;59.420;17.842;2023-02-01T07:50:46;1.10;;;1.00;;
14292;SDS011;62290;59.420;17.842;2023-02-01T07:53:14;3.13;;;1.40;;
14292;SDS011;62290;59.420;17.842;2023-02-01T07:55:42;2.05;;;1.08;;
14292;SDS011;62290;59.420;17.842;2023-02-01T07:58:10;2.85;;;1.35;;
14292;SDS011;62290;59.420;17.842;2023-02-01T08:00:38;3.38;;;1.20;;
14292;SDS011;62290;59.420;17.842;2023-02-01T08:03:25;5.00;;;1.40;;
14292;SDS011;62290;59.420;17.842;2023-02-01T08:05:53;2.60;;;1.42;;
14292;SDS011;62290;59.420;17.842;2023-02-01T08:08:22;2.33;;;1.00;;
14292;SDS011;62290;59.420;17.842;2023-02-01T08:10:50;2.88;;;1.23;;
14292;SDS011;62290;59.420;17.842;2023-02-01T08:13:18;4.95;;;1.67;;
14292;SDS011;62290;59.420;17.842;2023-02-01T08:15:46;5.57;;;1.73;;
14292;SDS011;62290;59.420;17.842;2023-02-01T08:18:14;3.53;;;1.30;;
14292;SDS011;62290;59.420;17.842;2023-02-01T08:20:45;2.67;;;1.23;;
14292;SDS011;62290;59.420;17.842;2023-02-01T08:23:14;2.20;;;1.08;;
14292;SDS011;62290;59.420;17.842;2023-02-01T08:25:42;2.65;;;1.38;;
14292;SDS011;62290;59.420;17.842;2023-02-01T08:28:10;4.20;;;1.42;;
14292;SDS011;62290;59.420;17.842;2023-02-01T08:30:38;3.05;;;1.23;;
14292;SDS011;62290;59.420;17.842;2023-02-01T08:33:08;3.97;;;1.20;;
14292;SDS011;62290;59.420;17.842;2023-02-01T08:35:38;4.45;;;1.58;;
14292;SDS011;62290;59.420;17.842;2023-02-01T08:38:11;5.80;;;1.30;;
14292;SDS011;62290;59.420;17.842;2023-02-01T08:40:39;2.42;;;1.35;;
14292;SDS011;62290;59.420;17.842;2023-02-01T08:43:09;5.72;;;1.63;;
14292;SDS011;62290;59.420;17.842;2023-02-01T08:45:37;6.88;;;1.50;;
14292;SDS011;62290;59.420;17.842;2023-02-01T08:48:07;5.07;;;1.30;;
14292;SDS011;62290;59.420;17.842;2023-02-01T08:50:35;5.30;;;2.28;;
14292;SDS011;62290;59.420;17.842;2023-02-01T08:53:03;7.43;;;1.98;;
14292;SDS011;62290;59.420;17.842;2023-02-01T08:55:33;6.80;;;2.53;;
14292;SDS011;62290;59.420;17.842;2023-02-01T08:58:01;5.22;;;1.50;;
14292;SDS011;62290;59.420;17.842;2023-02-01T09:00:29;6.05;;;1.85;;
14292;SDS011;62290;59.420;17.842;2023-02-01T09:02:57;8.68;;;2.35;;
14292;SDS011;62290;59.420;17.842;2023-02-01T09:05:25;6.82;;;1.90;;
14292;SDS011;62290;59.420;17.842;2023-02-01T09:08:12;7.13;;;2.58;;
14292;SDS011;62290;59.420;17.842;2023-02-01T09:10:42;10.25;;;4.88;;
14292;SDS011;62290;59.420;17.842;2023-02-01T09:13:11;29.02;;;20.10;;
14292;SDS011;62290;59.420;17.842;2023-02-01T09:15:39;20.25;;;13.75;;
14292;SDS011;62290;59.420;17.842;2023-02-01T09:18:07;19.17;;;12.43;;
14292;SDS011;62290;59.420;17.842;2023-02-01T09:20:36;17.48;;;9.55;;
14292;SDS011;62290;59.420;17.842;2023-02-01T09:23:04;16.23;;;7.35;;
14292;SDS011;62290;59.420;17.842;2023-02-01T09:25:33;16.30;;;6.72;;
14292;SDS011;62290;59.420;17.842;2023-02-01T09:28:03;14.27;;;6.30;;
14292;SDS011;62290;59.420;17.842;2023-02-01T09:30:32;24.58;;;5.85;;
14292;SDS011;62290;59.420;17.842;2023-02-01T09:33:01;11.98;;;5.03;;
14292;SDS011;62290;59.420;17.842;2023-02-01T09:35:29;12.00;;;4.63;;
14292;SDS011;62290;59.420;17.842;2023-02-01T09:37:57;8.82;;;3.83;;
14292;SDS011;62290;59.420;17.842;2023-02-01T09:40:25;8.27;;;3.55;;
14292;SDS011;62290;59.420;17.842;2023-02-01T09:43:05;8.80;;;3.35;;
14292;SDS011;62290;59.420;17.842;2023-02-01T09:45:42;10.98;;;4.18;;
14292;SDS011;62290;59.420;17.842;2023-02-01T09:48:19;9.93;;;4.82;;
14292;SDS011;62290;59.420;17.842;2023-02-01T09:50:53;8.43;;;4.55;;
14292;SDS011;62290;59.420;17.842;2023-02-01T09:53:23;7.05;;;3.92;;
14292;SDS011;62290;59.420;17.842;2023-02-01T09:55:58;10.20;;;3.35;;
14292;SDS011;62290;59.420;17.842;2023-02-01T09:58:32;6.25;;;3.03;;
14292;SDS011;62290;59.420;17.842;2023-02-01T10:01:08;6.50;;;3.03;;
14292;SDS011;62290;59.420;17.842;2023-02-01T10:03:41;5.85;;;2.80;;
14292;SDS011;62290;59.420;17.842;2023-02-01T10:06:22;4.95;;;2.50;;
14292;SDS011;62290;59.420;17.842;2023-02-01T10:09:10;5.80;;;2.85;;
14292;SDS011;62290;59.420;17.842;2023-02-01T10:11:52;12.25;;;5.85;;
14292;SDS011;62290;59.420;17.842;2023-02-01T10:14:40;10.00;;;4.25;;
14292;SDS011;62290;59.420;17.842;2023-02-01T10:17:22;8.23;;;3.10;;
14292;SDS011;62290;59.420;17.842;2023-02-01T10:20:03;7.60;;;2.88;;
14292;SDS011;62290;59.420;17.842;2023-02-01T10:22:41;6.03;;;2.53;;
14292;SDS011;62290;59.420;17.842;2023-02-01T10:25:31;11.80;;;2.50;;
14292;SDS011;62290;59.420;17.842;2023-02-01T10:28:07;7.38;;;2.30;;
14292;SDS011;62290;59.420;17.842;2023-02-01T10:30:45;10.25;;;2.50;;
14292;SDS011;62290;59.420;17.842;2023-02-01T10:33:17;5.72;;;2.00;;
14292;SDS011;62290;59.420;17.842;2023-02-01T10:35:46;4.90;;;1.88;;
14292;SDS011;62290;59.420;17.842;2023-02-01T10:38:23;6.10;;;2.25;;
14292;SDS011;62290;59.420;17.842;2023-02-01T10:40:54;4.63;;;1.88;;
14292;SDS011;62290;59.420;17.842;2023-02-01T10:43:27;6.18;;;2.25;;
14292;SDS011;62290;59.420;17.842;2023-02-01T10:45:57;3.63;;;1.85;;
14292;SDS011;62290;59.420;17.842;2023-02-01T10:48:25;2.80;;;1.33;;
14292;SDS011;62290;59.420;17.842;2023-02-01T10:50:57;6.63;;;1.67;;
14292;SDS011;62290;59.420;17.842;2023-02-01T10:53:28;4.93;;;1.63;;
14292;SDS011;62290;59.420;17.842;2023-02-01T10:56:05;6.03;;;2.13;;
14292;SDS011;62290;59.420;17.842;2023-02-01T10:58:36;3.88;;;1.40;;
14292;SDS011;62290;59.420;17.842;2023-02-01T11:01:16;5.03;;;1.20;;
14292;SDS011;62290;59.420;17.842;2023-02-01T11:03:52;7.45;;;2.05;;
14292;SDS011;62290;59.420;17.842;2023-02-01T11:06:24;5.65;;;1.80;;
14292;SDS011;62290;59.420;17.842;2023-02-01T11:08:55;4.15;;;1.75;;
14292;SDS011;62290;59.420;17.842;2023-02-01T11:11:25;4.70;;;1.33;;
14292;SDS011;62290;59.420;17.842;2023-02-01T11:13:55;3.63;;;1.35;;
14292;SDS011;62290;59.420;17.842;2023-02-01T11:16:30;6.03;;;1.90;;
14292;SDS011;62290;59.420;17.842;2023-02-01T11:19:05;5.18;;;1.48;;
14292;SDS011;62290;59.420;17.842;2023-02-01T11:21:33;3.50;;;1.38;;
14292;SDS011;62290;59.420;17.842;2023-02-01T11:24:04;5.53;;;1.55;;
14292;SDS011;62290;59.420;17.842;2023-02-01T11:26:35;4.03;;;1.70;;
14292;SDS011;62290;59.420;17.842;2023-02-01T11:29:09;4.00;;;1.50;;
14292;SDS011;62290;59.420;17.842;2023-02-01T11:31:42;2.45;;;1.38;;
14292;SDS011;62290;59.420;17.842;2023-02-01T11:34:12;3.13;;;1.55;;
14292;SDS011;62290;59.420;17.842;2023-02-01T11:36:44;3.88;;;1.48;;
14292;SDS011;62290;59.420;17.842;2023-02-01T11:39:21;4.15;;;1.50;;
14292;SDS011;62290;59.420;17.842;2023-02-01T11:42:03;4.20;;;1.70;;
14292;SDS011;62290;59.420;17.842;2023-02-01T11:44:34;3.63;;;2.13;;
14292;SDS011;62290;59.420;17.842;2023-02-01T11:47:22;2.75;;;1.70;;
14292;SDS011;62290;59.420;17.842;2023-02-01T11:49:52;2.33;;;1.45;;
14292;SDS011;62290;59.420;17.842;2023-02-01T11:52:26;3.55;;;1.65;;
14292;SDS011;62290;59.420;17.842;2023-02-01T11:58:10;3.38;;;1.52;;
14292;SDS011;62290;59.420;17.842;2023-02-01T12:00:51;2.75;;;1.60;;
14292;SDS011;62290;59.420;17.842;2023-02-01T12:03:32;2.60;;;1.52;;
14292;SDS011;62290;59.420;17.842;2023-02-01T12:06:15;3.10;;;1.58;;
14292;SDS011;62290;59.420;17.842;2023-02-01T12:09:01;3.05;;;1.42;;
14292;SDS011;62290;59.420;17.842;2023-02-01T12:11:43;2.85;;;1.30;;
14292;SDS011;62290;59.420;17.842;2023-02-01T12:14:21;2.58;;;1.50;;
14292;SDS011;62290;59.420;17.842;2023-02-01T12:17:02;3.30;;;1.50;;
14292;SDS011;62290;59.420;17.842;2023-02-01T12:19:48;3.03;;;1.60;;
14292;SDS011;62290;59.420;17.842;2023-02-01T12:22:29;2.35;;;1.52;;
14292;SDS011;62290;59.420;17.842;2023-02-01T12:25:13;2.80;;;1.65;;
14292;SDS011;62290;59.420;17.842;2023-02-01T12:33:48;2.85;;;1.30;;
14292;SDS011;62290;59.420;17.842;2023-02-01T12:36:29;3.63;;;1.40;;
14292;SDS011;62290;59.420;17.842;2023-02-01T12:39:06;2.60;;;1.50;;
14292;SDS011;62290;59.420;17.842;2023-02-01T12:41:46;4.47;;;1.38;;
14292;SDS011;62290;59.420;17.842;2023-02-01T12:44:25;3.90;;;1.23;;
14292;SDS011;62290;59.420;17.842;2023-02-01T12:47:00;4.07;;;1.35;;
14292;SDS011;62290;59.420;17.842;2023-02-01T12:49:36;3.63;;;1.50;;
14292;SDS011;62290;59.420;17.842;2023-02-01T12:52:15;3.00;;;1.20;;
14292;SDS011;62290;59.420;17.842;2023-02-01T12:54:48;3.22;;;1.27;;
14292;SDS011;62290;59.420;17.842;2023-02-01T12:57:23;3.67;;;1.50;;
14292;SDS011;62290;59.420;17.842;2023-02-01T12:59:56;2.58;;;1.25;;
14292;SDS011;62290;59.420;17.842;2023-02-01T13:02:35;3.65;;;1.30;;
14292;SDS011;62290;59.420;17.842;2023-02-01T13:05:13;1.92;;;1.00;;
14292;SDS011;62290;59.420;17.842;2023-02-01T13:07:48;4.13;;;1.20;;
14292;SDS011;62290;59.420;17.842;2023-02-01T13:10:21;1.60;;;1.00;;
14292;SDS011;62290;59.420;17.842;2023-02-01T13:13:09;2.72;;;1.27;;
14292;SDS011;62290;59.420;17.842;2023-02-01T13:15:43;3.10;;;1.23;;
14292;SDS011;62290;59.420;17.842;2023-02-01T13:18:14;3.15;;;1.38;;
14292;SDS011;62290;59.420;17.842;2023-02-01T13:20:47;2.17;;;1.23;;
14292;SDS011;62290;59.420;17.842;2023-02-01T13:23:24;2.28;;;1.20;;
14292;SDS011;62290;59.420;17.842;2023-02-01T13:25:55;2.55;;;0.95;;
14292;SDS011;62290;59.420;17.842;2023-02-01T13:28:25;2.75;;;1.15;;
14292;SDS011;62290;59.420;17.842;2023-02-01T13:34:10;3.03;;;1.10;;
14292;SDS011;62290;59.420;17.842;2023-02-01T13:37:02;2.47;;;1.00;;
14292;SDS011;62290;59.420;17.842;2023-02-01T13:39:52;3.05;;;1.10;;
14292;SDS011;62290;59.420;17.842;2023-02-01T13:42:35;1.80;;;0.98;;
14292;SDS011;62290;59.420;17.842;2023-02-01T13:45:13;1.60;;;1.10;;
14292;SDS011;62290;59.420;17.842;2023-02-01T13:47:44;2.15;;;1.13;;
14292;SDS011;62290;59.420;17.842;2023-02-01T13:50:19;1.63;;;0.98;;
14292;SDS011;62290;59.420;17.842;2023-02-01T13:52:52;1.48;;;0.80;;
14292;SDS011;62290;59.420;17.842;2023-02-01T13:55:28;2.08;;;0.80;;
14292;SDS011;62290;59.420;17.842;2023-02-01T13:58:00;4.45;;;1.13;;
14292;SDS011;62290;59.420;17.842;2023-02-01T14:00:31;1.88;;;0.77;;
14292;SDS011;62290;59.420;17.842;2023-02-01T14:06:02;2.17;;;0.95;;
14292;SDS011;62290;59.420;17.842;2023-02-01T14:08:43;3.58;;;0.80;;
14292;SDS011;62290;59.420;17.842;2023-02-01T14:11:43;2.78;;;1.05;;
14292;SDS011;62290;59.420;17.842;2023-02-01T14:23:16;4.63;;;1.38;;
14292;SDS011;62290;59.420;17.842;2023-02-01T14:25:48;2.53;;;1.20;;
14292;SDS011;62290;59.420;17.842;2023-02-01T14:28:40;4.90;;;1.20;;
14292;SDS011;62290;59.420;17.842;2023-02-01T14:31:35;4.70;;;1.33;;
14292;SDS011;62290;59.420;17.842;2023-02-01T14:34:13;1.35;;;0.80;;
14292;SDS011;62290;59.420;17.842;2023-02-01T14:36:47;1.40;;;0.90;;
14292;SDS011;62290;59.420;17.842;2023-02-01T14:39:29;1.85;;;0.77;;
14292;SDS011;62290;59.420;17.842;2023-02-01T14:42:01;2.63;;;1.10;;
14292;SDS011;62290;59.420;17.842;2023-02-01T14:44:36;2.17;;;0.93;;
14292;SDS011;62290;59.420;17.842;2023-02-01T14:47:05;2.30;;;1.20;;
14292;SDS011;62290;59.420;17.842;2023-02-01T14:49:37;3.17;;;1.02;;
14292;SDS011;62290;59.420;17.842;2023-02-01T14:52:11;3.72;;;1.10;;
14292;SDS011;62290;59.420;17.842;2023-02-01T14:54:44;1.63;;;0.98;;
14292;SDS011;62290;59.420;17.842;2023-02-01T14:57:15;2.17;;;1.02;;
14292;SDS011;62290;59.420;17.842;2023-02-01T14:59:47;1.65;;;0.90;;
14292;SDS011;62290;59.420;17.842;2023-02-01T15:02:24;4.35;;;1.15;;
14292;SDS011;62290;59.420;17.842;2023-02-01T15:04:55;3.45;;;1.20;;
14292;SDS011;62290;59.420;17.842;2023-02-01T15:07:24;4.22;;;1.35;;
14292;SDS011;62290;59.420;17.842;2023-02-01T15:09:55;3.03;;;1.10;;
14292;SDS011;62290;59.420;17.842;2023-02-01T15:12:26;2.55;;;1.10;;
14292;SDS011;62290;59.420;17.842;2023-02-01T15:17:51;1.35;;;0.82;;
14292;SDS011;62290;59.420;17.842;2023-02-01T15:20:21;3.40;;;1.00;;
14292;SDS011;62290;59.420;17.842;2023-02-01T15:22:52;1.95;;;1.00;;
14292;SDS011;62290;59.420;17.842;2023-02-01T15:25:26;3.83;;;1.25;;
14292;SDS011;62290;59.420;17.842;2023-02-01T15:27:55;1.23;;;0.75;;
14292;SDS011;62290;59.420;17.842;2023-02-01T15:30:26;1.80;;;0.70;;
14292;SDS011;62290;59.420;17.842;2023-02-01T15:33:04;1.92;;;0.90;;
14292;SDS011;62290;59.420;17.842;2023-02-01T15:35:35;2.05;;;0.70;;
14292;SDS011;62290;59.420;17.842;2023-02-01T15:41:04;1.45;;;0.60;;
14292;SDS011;62290;59.420;17.842;2023-02-01T15:43:36;2.83;;;1.10;;
14292;SDS011;62290;59.420;17.842;2023-02-01T15:46:09;2.55;;;0.80;;